sensor_id;sensor_type;location;lat;lon;timestamp;pressure;altitude;pressure_sealevel;temperature;humidity
3102;BME280;1561;42.666;23.392;2023-07-30T00:02:15;95032.06;;;21.09;100.00
3102;BME280;1561;42.666;23.392;2023-07-30T00:04:46;95003.56;;;20.88;100.00
3102;BME280;1561;42.666;23.392;2023-07-30T00:07:17;94991.72;;;20.79;100.00
3102;BME280;1561;42.666;23.392;2023-07-30T00:09:45;94972.91;;;20.77;100.00
3102;BME280;1561;42.666;23.392;2023-07-30T00:12:14;95027.97;;;20.93;100.00
3102;BME280;1561;42.666;23.392;2023-07-30T00:14:49;95036.06;;;21.05;100.00
3102;BME280;1561;42.666;23.392;2023-07-30T00:17:19;95036.66;;;21.07;100.00
3102;BME280;1561;42.666;23.392;2023-07-30T00:19:46;95027.59;;;20.96;100.00
3102;BME280;1561;42.666;23.392;2023-07-30T00:22:13;95030.03;;;20.77;100.00
3102;BME280;1561;42.666;23.392;2023-07-30T00:24:43;95029.00;;;20.99;100.00
3102;BME280;1561;42.666;23.392;2023-07-30T00:27:11;95040.66;;;20.82;100.00
3102;BME280;1561;42.666;23.392;2023-07-30T00:29:39;95024.41;;;20.94;100.00
3102;BME280;1561;42.666;23.392;2023-07-30T00:32:09;95031.94;;;20.89;100.00
3102;BME280;1561;42.666;23.392;2023-07-30T00:34:36;95025.28;;;20.80;100.00
3102;BME280;1561;42.666;23.392;2023-07-30T00:37:07;95019.81;;;20.96;100.00
3102;BME280;1561;42.666;23.392;2023-07-30T00:39:35;94994.00;;;20.61;100.00
3102;BME280;1561;42.666;23.392;2023-07-30T00:42:04;95018.75;;;20.57;100.00
3102;BME280;1561;42.666;23.392;2023-07-30T00:44:31;94909.44;;;19.90;100.00
3102;BME280;1561;42.666;23.392;2023-07-30T00:47:01;95005.56;;;20.31;100.00
3102;BME280;1561;42.666;23.392;2023-07-30T00:49:30;95022.78;;;20.38;100.00
3102;BME280;1561;42.666;23.392;2023-07-30T00:51:59;95006.63;;;20.15;100.00
3102;BME280;1561;42.666;23.392;2023-07-30T00:54:27;95018.84;;;20.21;100.00
3102;BME280;1561;42.666;23.392;2023-07-30T00:56:54;94915.38;;;19.42;100.00
3102;BME280;1561;42.666;23.392;2023-07-30T00:59:32;95009.38;;;19.93;100.00
3102;BME280;1561;42.666;23.392;2023-07-30T01:02:01;95020.00;;;19.98;100.00
3102;BME280;1561;42.666;23.392;2023-07-30T01:04:31;95014.94;;;19.90;100.00
3102;BME280;1561;42.666;23.392;2023-07-30T01:07:06;95016.72;;;19.89;100.00
3102;BME280;1561;42.666;23.392;2023-07-30T01:09:42;94994.63;;;19.72;100.00
3102;BME280;1561;42.666;23.392;2023-07-30T01:12:13;95015.53;;;19.71;100.00
3102;BME280;1561;42.666;23.392;2023-07-30T01:14:49;95026.16;;;19.76;100.00
3102;BME280;1561;42.666;23.392;2023-07-30T01:17:19;95027.16;;;19.75;100.00
3102;BME280;1561;42.666;23.392;2023-07-30T01:19:49;95020.28;;;19.67;100.00
3102;BME280;1561;42.666;23.392;2023-07-30T01:22:24;95026.81;;;19.63;100.00
3102;BME280;1561;42.666;23.392;2023-07-30T01:24:51;95028.00;;;19.61;100.00
3102;BME280;1561;42.666;23.392;2023-07-30T01:27:23;95016.06;;;19.45;100.00
3102;BME280;1561;42.666;23.392;2023-07-30T01:29:52;95018.28;;;19.48;100.00
3102;BME280;1561;42.666;23.392;2023-07-30T01:32:27;94966.59;;;19.11;100.00
3102;BME280;1561;42.666;23.392;2023-07-30T01:34:56;95023.63;;;19.61;100.00
3102;BME280;1561;42.666;23.392;2023-07-30T01:37:27;95020.41;;;19.45;100.00
3102;BME280;1561;42.666;23.392;2023-07-30T01:39:55;95025.50;;;19.53;100.00
3102;BME280;1561;42.666;23.392;2023-07-30T01:42:29;95030.09;;;19.51;100.00
3102;BME280;1561;42.666;23.392;2023-07-30T01:44:56;95023.47;;;19.48;100.00
3102;BME280;1561;42.666;23.392;2023-07-30T01:47:25;94998.41;;;19.20;100.00
3102;BME280;1561;42.666;23.392;2023-07-30T01:49:55;95017.06;;;19.30;100.00
3102;BME280;1561;42.666;23.392;2023-07-30T01:52:29;95038.31;;;19.25;100.00
3102;BME280;1561;42.666;23.392;2023-07-30T01:54:56;94998.16;;;19.00;100.00
3102;BME280;1561;42.666;23.392;2023-07-30T01:57:26;95034.94;;;19.25;100.00
3102;BME280;1561;42.666;23.392;2023-07-30T01:59:55;95034.00;;;19.18;100.00
3102;BME280;1561;42.666;23.392;2023-07-30T02:02:22;95028.75;;;19.11;100.00
3102;BME280;1561;42.666;23.392;2023-07-30T02:04:49;95033.50;;;19.08;100.00
3102;BME280;1561;42.666;23.392;2023-07-30T02:07:16;95009.66;;;18.98;100.00
3102;BME280;1561;42.666;23.392;2023-07-30T02:09:45;95024.47;;;19.18;100.00
3102;BME280;1561;42.666;23.392;2023-07-30T02:12:12;94964.66;;;18.70;100.00
3102;BME280;1561;42.666;23.392;2023-07-30T02:14:39;95037.34;;;19.12;100.00
3102;BME280;1561;42.666;23.392;2023-07-30T02:17:09;95040.28;;;19.09;100.00
3102;BME280;1561;42.666;23.392;2023-07-30T02:19:36;95004.31;;;18.85;100.00
3102;BME280;1561;42.666;23.392;2023-07-30T02:22:06;95017.34;;;18.91;100.00
3102;BME280;1561;42.666;23.392;2023-07-30T02:24:35;95041.44;;;19.06;100.00
3102;BME280;1561;42.666;23.392;2023-07-30T02:27:07;95038.75;;;19.00;100.00
3102;BME280;1561;42.666;23.392;2023-07-30T02:29:33;95050.91;;;18.99;100.00
3102;BME280;1561;42.666;23.392;2023-07-30T02:32:07;95051.53;;;19.01;100.00
3102;BME280;1561;42.666;23.392;2023-07-30T02:34:36;95046.34;;;19.01;100.00
3102;BME280;1561;42.666;23.392;2023-07-30T02:37:05;95033.84;;;18.90;100.00
3102;BME280;1561;42.666;23.392;2023-07-30T02:39:32;94942.56;;;18.38;100.00
3102;BME280;1561;42.666;23.392;2023-07-30T02:42:00;95014.28;;;18.88;100.00
3102;BME280;1561;42.666;23.392;2023-07-30T02:44:32;95048.84;;;19.09;100.00
3102;BME280;1561;42.666;23.392;2023-07-30T02:47:02;95052.22;;;19.10;100.00
3102;BME280;1561;42.666;23.392;2023-07-30T02:49:29;95050.19;;;19.05;100.00
3102;BME280;1561;42.666;23.392;2023-07-30T02:51:59;95045.81;;;18.91;100.00
3102;BME280;1561;42.666;23.392;2023-07-30T02:54:27;95037.59;;;18.73;100.00
3102;BME280;1561;42.666;23.392;2023-07-30T02:56:57;95055.28;;;18.84;100.00
3102;BME280;1561;42.666;23.392;2023-07-30T02:59:24;94840.97;;;17.49;100.00
3102;BME280;1561;42.666;23.392;2023-07-30T03:01:53;95063.38;;;18.81;100.00
3102;BME280;1561;42.666;23.392;2023-07-30T03:04:20;95049.56;;;18.74;100.00
3102;BME280;1561;42.666;23.392;2023-07-30T03:06:48;95055.44;;;18.83;100.00
3102;BME280;1561;42.666;23.392;2023-07-30T03:09:16;95059.66;;;18.98;100.00
3102;BME280;1561;42.666;23.392;2023-07-30T03:11:43;95046.53;;;19.00;100.00
3102;BME280;1561;42.666;23.392;2023-07-30T03:14:17;95076.44;;;19.02;100.00
3102;BME280;1561;42.666;23.392;2023-07-30T03:16:45;95069.13;;;18.91;100.00
3102;BME280;1561;42.666;23.392;2023-07-30T03:19:23;95045.47;;;18.80;100.00
3102;BME280;1561;42.666;23.392;2023-07-30T03:21:53;95071.88;;;18.90;100.00
3102;BME280;1561;42.666;23.392;2023-07-30T03:24:21;95058.03;;;18.83;100.00
3102;BME280;1561;42.666;23.392;2023-07-30T03:26:48;95065.34;;;18.79;100.00
3102;BME280;1561;42.666;23.392;2023-07-30T03:29:19;95059.84;;;18.82;100.00
3102;BME280;1561;42.666;23.392;2023-07-30T03:31:47;95046.88;;;18.82;100.00
3102;BME280;1561;42.666;23.392;2023-07-30T03:34:19;95064.56;;;18.93;100.00
3102;BME280;1561;42.666;23.392;2023-07-30T03:36:52;95064.47;;;19.16;100.00
3102;BME280;1561;42.666;23.392;2023-07-30T03:39:25;95061.25;;;19.57;100.00
3102;BME280;1561;42.666;23.392;2023-07-30T03:41:53;95059.97;;;19.68;100.00
3102;BME280;1561;42.666;23.392;2023-07-30T03:44:20;95048.50;;;19.41;100.00
3102;BME280;1561;42.666;23.392;2023-07-30T03:46:48;95062.25;;;19.77;100.00
3102;BME280;1561;42.666;23.392;2023-07-30T03:49:17;95053.22;;;19.88;100.00
3102;BME280;1561;42.666;23.392;2023-07-30T03:51:45;95067.00;;;20.09;100.00
3102;BME280;1561;42.666;23.392;2023-07-30T03:54:14;95024.25;;;19.84;100.00
3102;BME280;1561;42.666;23.392;2023-07-30T03:56:41;94978.56;;;20.04;100.00
3102;BME280;1561;42.666;23.392;2023-07-30T03:59:08;95070.41;;;20.79;100.00
3102;BME280;1561;42.666;23.392;2023-07-30T04:01:38;95076.00;;;21.04;100.00
3102;BME280;1561;42.666;23.392;2023-07-30T04:04:05;95072.03;;;20.80;100.00
3102;BME280;1561;42.666;23.392;2023-07-30T04:06:32;95077.00;;;21.71;100.00
3102;BME280;1561;42.666;23.392;2023-07-30T04:09:01;95078.72;;;21.64;100.00
3102;BME280;1561;42.666;23.392;2023-07-30T04:11:30;95078.91;;;22.09;100.00
3102;BME280;1561;42.666;23.392;2023-07-30T04:13:57;95062.69;;;23.18;100.00
3102;BME280;1561;42.666;23.392;2023-07-30T04:16:24;95072.63;;;23.60;100.00
3102;BME280;1561;42.666;23.392;2023-07-30T04:18:52;95073.75;;;24.52;100.00
3102;BME280;1561;42.666;23.392;2023-07-30T04:21:20;95069.94;;;24.24;100.00
3102;BME280;1561;42.666;23.392;2023-07-30T04:23:48;95067.91;;;23.18;100.00
3102;BME280;1561;42.666;23.392;2023-07-30T04:26:17;95076.09;;;23.41;100.00
3102;BME280;1561;42.666;23.392;2023-07-30T04:28:49;95081.94;;;23.37;100.00
3102;BME280;1561;42.666;23.392;2023-07-30T04:31:21;95048.16;;;24.36;100.00
3102;BME280;1561;42.666;23.392;2023-07-30T04:33:52;95072.41;;;25.41;95.43
3102;BME280;1561;42.666;23.392;2023-07-30T04:36:18;95078.28;;;25.73;88.21
3102;BME280;1561;42.666;23.392;2023-07-30T04:38:48;95070.16;;;25.63;91.38
3102;BME280;1561;42.666;23.392;2023-07-30T04:41:16;95072.63;;;25.58;89.95
3102;BME280;1561;42.666;23.392;2023-07-30T04:43:44;95073.69;;;25.50;92.04
3102;BME280;1561;42.666;23.392;2023-07-30T04:46:12;95078.41;;;24.81;96.77
3102;BME280;1561;42.666;23.392;2023-07-30T04:48:40;95081.88;;;25.42;92.70
3102;BME280;1561;42.666;23.392;2023-07-30T04:51:09;95055.88;;;25.05;90.68
3102;BME280;1561;42.666;23.392;2023-07-30T04:53:36;95076.16;;;25.63;89.73
3102;BME280;1561;42.666;23.392;2023-07-30T04:56:04;95084.19;;;25.86;85.72
3102;BME280;1561;42.666;23.392;2023-07-30T04:58:36;95074.84;;;26.38;82.02
3102;BME280;1561;42.666;23.392;2023-07-30T05:01:03;95052.94;;;25.55;87.36
3102;BME280;1561;42.666;23.392;2023-07-30T05:03:32;95076.53;;;26.32;82.89
3102;BME280;1561;42.666;23.392;2023-07-30T05:06:04;95081.31;;;25.88;84.36
3102;BME280;1561;42.666;23.392;2023-07-30T05:08:32;95080.50;;;26.35;82.79
3102;BME280;1561;42.666;23.392;2023-07-30T05:10:58;95061.94;;;26.77;76.88
3102;BME280;1561;42.666;23.392;2023-07-30T05:13:26;95072.13;;;27.43;71.32
3102;BME280;1561;42.666;23.392;2023-07-30T05:15:57;95075.09;;;26.48;75.39
3102;BME280;1561;42.666;23.392;2023-07-30T05:18:24;95072.81;;;27.04;74.53
3102;BME280;1561;42.666;23.392;2023-07-30T05:21:00;95066.22;;;27.75;69.04
3102;BME280;1561;42.666;23.392;2023-07-30T05:23:27;94922.63;;;26.28;71.46
3102;BME280;1561;42.666;23.392;2023-07-30T05:25:56;95077.13;;;27.10;73.07
3102;BME280;1561;42.666;23.392;2023-07-30T05:28:23;95071.66;;;27.46;68.69
3102;BME280;1561;42.666;23.392;2023-07-30T05:30:50;95075.38;;;26.81;74.37
3102;BME280;1561;42.666;23.392;2023-07-30T05:33:17;95071.56;;;27.41;70.58
3102;BME280;1561;42.666;23.392;2023-07-30T05:35:44;95078.53;;;28.26;67.07
3102;BME280;1561;42.666;23.392;2023-07-30T05:38:15;94994.81;;;28.46;62.58
3102;BME280;1561;42.666;23.392;2023-07-30T05:40:43;95078.19;;;27.20;72.87
3102;BME280;1561;42.666;23.392;2023-07-30T05:43:10;95081.69;;;28.39;66.28
3102;BME280;1561;42.666;23.392;2023-07-30T05:45:37;95085.97;;;28.90;65.52
3102;BME280;1561;42.666;23.392;2023-07-30T05:48:08;95083.78;;;27.98;68.91
3102;BME280;1561;42.666;23.392;2023-07-30T05:50:36;95082.84;;;28.04;69.63
3102;BME280;1561;42.666;23.392;2023-07-30T05:53:05;95080.91;;;26.91;73.48
3102;BME280;1561;42.666;23.392;2023-07-30T05:55:35;95082.38;;;28.79;63.71
3102;BME280;1561;42.666;23.392;2023-07-30T05:58:05;95076.75;;;28.15;68.57
3102;BME280;1561;42.666;23.392;2023-07-30T06:00:32;95083.34;;;29.23;59.92
3102;BME280;1561;42.666;23.392;2023-07-30T06:03:00;95081.13;;;29.15;58.14
3102;BME280;1561;42.666;23.392;2023-07-30T06:05:29;95082.59;;;30.52;53.91
3102;BME280;1561;42.666;23.392;2023-07-30T06:07:58;95072.09;;;31.20;50.79
3102;BME280;1561;42.666;23.392;2023-07-30T06:10:28;95082.66;;;29.11;56.17
3102;BME280;1561;42.666;23.392;2023-07-30T06:12:58;95085.13;;;29.17;58.51
3102;BME280;1561;42.666;23.392;2023-07-30T06:15:27;95084.31;;;29.72;55.36
3102;BME280;1561;42.666;23.392;2023-07-30T06:17:56;95079.69;;;28.91;57.58
3102;BME280;1561;42.666;23.392;2023-07-30T06:20:24;95075.94;;;30.44;53.08
3102;BME280;1561;42.666;23.392;2023-07-30T06:22:51;95069.59;;;31.86;49.95
3102;BME280;1561;42.666;23.392;2023-07-30T06:25:20;95052.75;;;32.02;47.43
3102;BME280;1561;42.666;23.392;2023-07-30T06:27:47;95073.63;;;32.04;46.92
3102;BME280;1561;42.666;23.392;2023-07-30T06:30:16;95050.09;;;31.09;49.32
3102;BME280;1561;42.666;23.392;2023-07-30T06:32:49;95071.97;;;33.34;45.22
3102;BME280;1561;42.666;23.392;2023-07-30T06:35:17;95047.38;;;31.77;48.45
3102;BME280;1561;42.666;23.392;2023-07-30T06:37:44;95073.19;;;31.70;47.61
3102;BME280;1561;42.666;23.392;2023-07-30T06:40:11;95075.84;;;29.70;53.05
3102;BME280;1561;42.666;23.392;2023-07-30T06:42:39;95066.34;;;31.23;48.50
3102;BME280;1561;42.666;23.392;2023-07-30T06:45:10;95061.47;;;31.10;47.94
3102;BME280;1561;42.666;23.392;2023-07-30T06:47:38;95050.88;;;32.03;46.68
3102;BME280;1561;42.666;23.392;2023-07-30T06:50:06;94997.06;;;32.54;44.41
3102;BME280;1561;42.666;23.392;2023-07-30T06:52:36;95050.56;;;32.81;45.18
3102;BME280;1561;42.666;23.392;2023-07-30T06:55:05;95016.25;;;35.24;40.41
3102;BME280;1561;42.666;23.392;2023-07-30T06:57:32;95047.84;;;33.46;43.06
3102;BME280;1561;42.666;23.392;2023-07-30T06:59:59;94960.75;;;31.94;44.50
3102;BME280;1561;42.666;23.392;2023-07-30T07:02:26;95040.09;;;31.53;46.58
3102;BME280;1561;42.666;23.392;2023-07-30T07:04:55;95038.41;;;31.83;46.63
3102;BME280;1561;42.666;23.392;2023-07-30T07:07:22;95013.66;;;31.01;46.90
3102;BME280;1561;42.666;23.392;2023-07-30T07:09:52;95038.69;;;30.67;48.85
3102;BME280;1561;42.666;23.392;2023-07-30T07:12:20;95035.38;;;31.18;48.27
3102;BME280;1561;42.666;23.392;2023-07-30T07:14:49;95023.69;;;32.02;45.96
3102;BME280;1561;42.666;23.392;2023-07-30T07:17:17;95033.56;;;33.17;43.78
3102;BME280;1561;42.666;23.392;2023-07-30T07:19:46;95034.22;;;34.36;40.89
3102;BME280;1561;42.666;23.392;2023-07-30T07:22:17;95021.66;;;34.08;40.38
3102;BME280;1561;42.666;23.392;2023-07-30T07:24:45;95020.19;;;33.67;39.74
3102;BME280;1561;42.666;23.392;2023-07-30T07:27:12;95014.09;;;34.25;39.79
3102;BME280;1561;42.666;23.392;2023-07-30T07:29:40;95010.00;;;36.46;37.07
3102;BME280;1561;42.666;23.392;2023-07-30T07:32:07;95012.06;;;35.18;38.60
3102;BME280;1561;42.666;23.392;2023-07-30T07:34:40;94999.88;;;33.42;40.89
3102;BME280;1561;42.666;23.392;2023-07-30T07:37:07;95005.28;;;32.92;41.94
3102;BME280;1561;42.666;23.392;2023-07-30T07:39:35;94992.31;;;34.66;39.50
3102;BME280;1561;42.666;23.392;2023-07-30T07:42:03;94995.31;;;35.69;37.92
3102;BME280;1561;42.666;23.392;2023-07-30T07:44:30;94922.47;;;33.55;39.84
3102;BME280;1561;42.666;23.392;2023-07-30T07:46:58;95011.31;;;33.13;41.13
3102;BME280;1561;42.666;23.392;2023-07-30T07:49:25;95008.84;;;34.15;39.33
3102;BME280;1561;42.666;23.392;2023-07-30T07:51:52;94992.28;;;35.05;38.37
3102;BME280;1561;42.666;23.392;2023-07-30T07:54:19;94990.56;;;36.64;35.55
3102;BME280;1561;42.666;23.392;2023-07-30T07:56:48;94991.75;;;37.76;34.09
3102;BME280;1561;42.666;23.392;2023-07-30T07:59:20;94993.50;;;37.94;33.92
3102;BME280;1561;42.666;23.392;2023-07-30T08:01:48;94987.59;;;33.71;38.70
3102;BME280;1561;42.666;23.392;2023-07-30T08:04:17;94990.47;;;35.76;36.46
3102;BME280;1561;42.666;23.392;2023-07-30T08:06:46;94988.06;;;36.54;35.73
3102;BME280;1561;42.666;23.392;2023-07-30T08:09:13;94982.75;;;38.92;32.16
3102;BME280;1561;42.666;23.392;2023-07-30T08:11:43;94981.47;;;37.83;34.08
3102;BME280;1561;42.666;23.392;2023-07-30T08:14:13;94984.22;;;35.15;36.79
3102;BME280;1561;42.666;23.392;2023-07-30T08:16:41;94983.75;;;36.21;35.44
3102;BME280;1561;42.666;23.392;2023-07-30T08:19:10;94975.50;;;36.22;34.90
3102;BME280;1561;42.666;23.392;2023-07-30T08:21:37;94979.31;;;37.58;33.27
3102;BME280;1561;42.666;23.392;2023-07-30T08:24:08;94976.25;;;36.41;34.97
3102;BME280;1561;42.666;23.392;2023-07-30T08:26:36;94982.00;;;35.27;35.24
3102;BME280;1561;42.666;23.392;2023-07-30T08:29:06;94978.31;;;37.27;34.05
3102;BME280;1561;42.666;23.392;2023-07-30T08:31:40;94977.09;;;36.74;33.88
3102;BME280;1561;42.666;23.392;2023-07-30T08:34:07;94958.03;;;35.74;34.52
3102;BME280;1561;42.666;23.392;2023-07-30T08:36:36;94959.72;;;38.60;31.77
3102;BME280;1561;42.666;23.392;2023-07-30T08:39:04;94959.69;;;38.16;31.35
3102;BME280;1561;42.666;23.392;2023-07-30T08:41:32;94898.31;;;36.54;33.70
3102;BME280;1561;42.666;23.392;2023-07-30T08:44:01;94959.69;;;38.74;31.73
3102;BME280;1561;42.666;23.392;2023-07-30T08:46:29;94956.31;;;37.48;32.53
3102;BME280;1561;42.666;23.392;2023-07-30T08:49:02;94953.47;;;38.65;31.26
3102;BME280;1561;42.666;23.392;2023-07-30T08:51:33;94944.56;;;36.90;33.00
3102;BME280;1561;42.666;23.392;2023-07-30T08:54:03;94951.00;;;35.83;34.21
3102;BME280;1561;42.666;23.392;2023-07-30T08:56:39;94949.88;;;36.77;33.18
3102;BME280;1561;42.666;23.392;2023-07-30T08:59:08;94944.53;;;37.76;32.60
3102;BME280;1561;42.666;23.392;2023-07-30T09:01:40;94944.44;;;37.14;33.11
3102;BME280;1561;42.666;23.392;2023-07-30T09:04:16;94934.09;;;37.26;33.07
3102;BME280;1561;42.666;23.392;2023-07-30T09:06:48;94929.47;;;38.95;30.55
3102;BME280;1561;42.666;23.392;2023-07-30T09:09:15;94942.44;;;37.87;32.26
3102;BME280;1561;42.666;23.392;2023-07-30T09:11:42;94932.53;;;37.87;31.72
3102;BME280;1561;42.666;23.392;2023-07-30T09:14:11;94933.41;;;35.64;33.66
3102;BME280;1561;42.666;23.392;2023-07-30T09:16:40;94936.94;;;35.83;33.76
3102;BME280;1561;42.666;23.392;2023-07-30T09:19:07;94926.38;;;37.65;31.12
3102;BME280;1561;42.666;23.392;2023-07-30T09:21:36;94931.72;;;38.36;30.68
3102;BME280;1561;42.666;23.392;2023-07-30T09:24:04;94922.88;;;36.51;31.52
3102;BME280;1561;42.666;23.392;2023-07-30T09:26:40;94924.75;;;37.10;31.14
3102;BME280;1561;42.666;23.392;2023-07-30T09:29:22;94924.00;;;37.23;30.87
3102;BME280;1561;42.666;23.392;2023-07-30T09:31:52;94911.47;;;36.32;31.59
3102;BME280;1561;42.666;23.392;2023-07-30T09:34:23;94910.53;;;38.17;30.07
3102;BME280;1561;42.666;23.392;2023-07-30T09:36:52;94900.34;;;38.41;29.12
3102;BME280;1561;42.666;23.392;2023-07-30T09:39:21;94902.59;;;38.70;28.86
3102;BME280;1561;42.666;23.392;2023-07-30T09:41:50;94903.53;;;37.05;30.67
3102;BME280;1561;42.666;23.392;2023-07-30T09:44:20;94900.53;;;37.25;30.23
3102;BME280;1561;42.666;23.392;2023-07-30T09:46:48;94894.56;;;37.68;30.16
3102;BME280;1561;42.666;23.392;2023-07-30T09:49:18;94884.28;;;36.94;29.95
3102;BME280;1561;42.666;23.392;2023-07-30T09:51:46;94883.75;;;35.83;31.69
3102;BME280;1561;42.666;23.392;2023-07-30T09:54:14;94884.88;;;35.95;31.49
3102;BME280;1561;42.666;23.392;2023-07-30T09:56:42;94884.41;;;37.16;29.84
3102;BME280;1561;42.666;23.392;2023-07-30T09:59:09;94884.00;;;37.63;29.48
3102;BME280;1561;42.666;23.392;2023-07-30T10:01:40;94870.19;;;38.41;28.42
3102;BME280;1561;42.666;23.392;2023-07-30T10:04:13;94888.38;;;37.46;29.12
3102;BME280;1561;42.666;23.392;2023-07-30T10:06:44;94882.22;;;38.08;28.62
3102;BME280;1561;42.666;23.392;2023-07-30T10:09:19;94862.06;;;37.53;29.26
3102;BME280;1561;42.666;23.392;2023-07-30T10:11:51;94855.81;;;37.22;29.16
3102;BME280;1561;42.666;23.392;2023-07-30T10:14:22;94862.44;;;38.09;28.29
3102;BME280;1561;42.666;23.392;2023-07-30T10:17:10;94864.44;;;37.90;28.65
3102;BME280;1561;42.666;23.392;2023-07-30T10:19:38;94779.34;;;36.82;28.56
3102;BME280;1561;42.666;23.392;2023-07-30T10:22:20;94849.75;;;38.36;28.32
3102;BME280;1561;42.666;23.392;2023-07-30T10:25:02;94851.78;;;38.61;27.95
3102;BME280;1561;42.666;23.392;2023-07-30T10:27:37;94842.75;;;39.10;28.04
3102;BME280;1561;42.666;23.392;2023-07-30T10:30:11;94832.78;;;38.10;27.97
3102;BME280;1561;42.666;23.392;2023-07-30T10:32:41;94850.94;;;37.86;28.71
3102;BME280;1561;42.666;23.392;2023-07-30T10:35:09;94851.19;;;37.98;28.65
3102;BME280;1561;42.666;23.392;2023-07-30T10:37:59;94842.53;;;37.44;29.17
3102;BME280;1561;42.666;23.392;2023-07-30T10:40:29;94844.63;;;37.33;29.37
3102;BME280;1561;42.666;23.392;2023-07-30T10:42:57;94839.97;;;37.88;29.27
3102;BME280;1561;42.666;23.392;2023-07-30T10:45:27;94808.31;;;36.70;30.01
3102;BME280;1561;42.666;23.392;2023-07-30T10:48:04;94839.81;;;37.08;29.42
3102;BME280;1561;42.666;23.392;2023-07-30T10:50:30;94828.81;;;37.37;28.63
3102;BME280;1561;42.666;23.392;2023-07-30T10:52:58;94827.19;;;37.63;28.88
3102;BME280;1561;42.666;23.392;2023-07-30T10:55:31;94814.88;;;38.11;28.02
3102;BME280;1561;42.666;23.392;2023-07-30T10:57:59;94795.56;;;36.40;29.42
3102;BME280;1561;42.666;23.392;2023-07-30T11:00:27;94812.22;;;35.81;30.59
3102;BME280;1561;42.666;23.392;2023-07-30T11:02:54;94797.13;;;36.09;30.42
3102;BME280;1561;42.666;23.392;2023-07-30T11:05:21;94809.53;;;36.77;29.20
3102;BME280;1561;42.666;23.392;2023-07-30T11:07:50;94807.66;;;35.08;31.30
3102;BME280;1561;42.666;23.392;2023-07-30T11:10:18;94793.69;;;36.08;30.42
3102;BME280;1561;42.666;23.392;2023-07-30T11:12:49;94787.06;;;37.32;29.39
3102;BME280;1561;42.666;23.392;2023-07-30T11:15:16;94786.50;;;36.54;29.61
3102;BME280;1561;42.666;23.392;2023-07-30T11:17:43;94788.78;;;36.88;30.17
3102;BME280;1561;42.666;23.392;2023-07-30T11:20:22;94786.63;;;36.17;29.90
3102;BME280;1561;42.666;23.392;2023-07-30T11:22:51;94776.09;;;35.43;30.54
3102;BME280;1561;42.666;23.392;2023-07-30T11:25:20;94768.88;;;36.72;30.23
3102;BME280;1561;42.666;23.392;2023-07-30T11:27:49;94751.34;;;37.33;29.08
3102;BME280;1561;42.666;23.392;2023-07-30T11:30:17;94760.09;;;37.69;28.62
3102;BME280;1561;42.666;23.392;2023-07-30T11:32:47;94768.44;;;37.19;28.44
3102;BME280;1561;42.666;23.392;2023-07-30T11:35:16;94760.41;;;36.83;29.83
3102;BME280;1561;42.666;23.392;2023-07-30T11:37:46;94702.69;;;36.65;29.58
3102;BME280;1561;42.666;23.392;2023-07-30T11:40:15;94758.91;;;36.64;29.42
3102;BME280;1561;42.666;23.392;2023-07-30T11:42:43;94754.97;;;36.02;29.92
3102;BME280;1561;42.666;23.392;2023-07-30T11:45:19;94757.69;;;35.97;30.55
3102;BME280;1561;42.666;23.392;2023-07-30T11:47:47;94734.84;;;35.96;30.16
3102;BME280;1561;42.666;23.392;2023-07-30T11:50:18;94749.31;;;35.90;30.27
3102;BME280;1561;42.666;23.392;2023-07-30T11:52:55;94718.75;;;36.47;29.88
3102;BME280;1561;42.666;23.392;2023-07-30T11:55:23;94743.22;;;36.35;29.78
3102;BME280;1561;42.666;23.392;2023-07-30T11:57:51;94722.72;;;34.60;31.86
3102;BME280;1561;42.666;23.392;2023-07-30T12:00:22;94730.56;;;35.13;31.35
3102;BME280;1561;42.666;23.392;2023-07-30T12:02:49;94734.47;;;35.71;30.52
3102;BME280;1561;42.666;23.392;2023-07-30T12:05:18;94715.22;;;36.78;29.42
3102;BME280;1561;42.666;23.392;2023-07-30T12:07:48;94718.69;;;36.06;30.25
3102;BME280;1561;42.666;23.392;2023-07-30T12:10:15;94713.84;;;36.54;29.83
3102;BME280;1561;42.666;23.392;2023-07-30T12:12:46;94715.63;;;36.72;29.83
3102;BME280;1561;42.666;23.392;2023-07-30T12:15:18;94708.63;;;36.76;29.25
3102;BME280;1561;42.666;23.392;2023-07-30T12:17:49;94702.09;;;36.41;29.87
3102;BME280;1561;42.666;23.392;2023-07-30T12:20:17;94696.28;;;36.39;29.92
3102;BME280;1561;42.666;23.392;2023-07-30T12:22:45;94641.59;;;35.29;30.69
3102;BME280;1561;42.666;23.392;2023-07-30T12:25:12;94673.59;;;34.39;31.82
3102;BME280;1561;42.666;23.392;2023-07-30T12:27:39;94691.63;;;34.84;31.85
3102;BME280;1561;42.666;23.392;2023-07-30T12:30:08;94654.84;;;33.84;32.52
3102;BME280;1561;42.666;23.392;2023-07-30T12:32:37;94687.50;;;33.79;32.50
3102;BME280;1561;42.666;23.392;2023-07-30T12:35:08;94671.78;;;33.21;33.59
3102;BME280;1561;42.666;23.392;2023-07-30T12:37:35;94676.56;;;34.80;31.78
3102;BME280;1561;42.666;23.392;2023-07-30T12:40:04;94653.16;;;33.36;32.80
3102;BME280;1561;42.666;23.392;2023-07-30T12:42:33;94663.56;;;34.13;32.34
3102;BME280;1561;42.666;23.392;2023-07-30T12:45:02;94669.16;;;34.11;32.72
3102;BME280;1561;42.666;23.392;2023-07-30T12:47:30;94670.72;;;34.59;31.91
3102;BME280;1561;42.666;23.392;2023-07-30T12:49:58;94666.03;;;34.04;32.76
3102;BME280;1561;42.666;23.392;2023-07-30T12:52:27;94667.88;;;34.27;32.11
3102;BME280;1561;42.666;23.392;2023-07-30T12:54:54;94661.38;;;34.62;31.80
3102;BME280;1561;42.666;23.392;2023-07-30T12:57:21;94654.63;;;34.32;32.49
3102;BME280;1561;42.666;23.392;2023-07-30T12:59:48;94650.66;;;34.25;32.17
3102;BME280;1561;42.666;23.392;2023-07-30T13:02:25;94645.38;;;34.48;31.94
3102;BME280;1561;42.666;23.392;2023-07-30T13:04:54;94643.91;;;35.49;31.21
3102;BME280;1561;42.666;23.392;2023-07-30T13:07:23;94642.97;;;35.72;31.06
3102;BME280;1561;42.666;23.392;2023-07-30T13:10:02;94634.19;;;36.03;30.50
3102;BME280;1561;42.666;23.392;2023-07-30T13:12:29;94648.03;;;34.67;31.51
3102;BME280;1561;42.666;23.392;2023-07-30T13:14:59;94638.50;;;34.47;32.11
3102;BME280;1561;42.666;23.392;2023-07-30T13:17:27;94634.03;;;34.43;31.73
3102;BME280;1561;42.666;23.392;2023-07-30T13:20:08;94595.41;;;33.90;32.79